Coastal Carolina Regional Airport
KEWN : now visible

Airfield :











YOU CAN JOIN US ON...

 
LOGIN :

Register | Disclaimer

   EN    FR    IT 

 









Legend :    VFR   Marginal VFR   IFR   Intensive IFR   Very Intensive IFR
Visi :
Ceiling :
>= 8 km
>= 3000ft
5 to 8 km
1000 to 3000 ft
1500m to 5 km
500 to 1000 ft
800 to 1500m
200 to 500 ft
< 800m
< 200 ft
Symbols :   Thunderstorms  Fog  Heavy snow  Heavy precipitations  Wind > 20 kt






- Airport Elevation : 18 ft
- IATA code : EWN


KEWN - Coastal Carolina Regional

CURRENT METAR :
  • 021754Z 18011G21KT 8SM -RA FEW023 BKN042 OVC065 27/22 A3006 RMK AO2 RAB49 SLP179 P0000 60000 T02670222 10306 20228 56006

EXPIRED METARs :
  • 021654Z 19008G21KT 10SM SCT033 BKN060 BKN075 29/21 A3006 RMK AO2 SLP180 T02940211
  • 021554Z 17009KT 10SM FEW021 SCT026 BKN033 29/22 A3006 RMK AO2 SLP180 T02940217
  • 021515Z 10007KT 10SM SCT018 BKN025 BKN070 28/23 A3008 RMK AO2 T02780233

TAF KEWN
Valid from the 02 at 18:00 until the 03 at 18:00 UTC


021737Z 0218/0318 18012G18KT P6SM VCSH SCT015 BKN035
TEMPO 0218/0222 3SM SHRA BKN015
FM030200 11013G29KT P6SM BKN035
FM030700 06008G15KT P6SM BKN025
FM031200 30008G15KT P6SM BKN030
FM031500 23010G15KT P6SM BKN100
KZDC FIR / North America



MET'MAP, your aeronautical weather chart ! - Copyright ORBIFLY December 2007 - Disclaimer

ORBIFLY MET'MAP TEAM :

Programming & Development : Alexandra Zaïnal
Original concept : Baudouin d'Aumeries
Technical & hardware support : Manuel Goepfert
Assistance : Marc-Olivier Méhu




SOURCES & CREDITS :

   NOAA       Earth
Advisory